sensor_id;sensor_type;location;lat;lon;timestamp;P1;durP1;ratioP1;P2;durP2;ratioP2
13343;SDS011;6741;48.964;9.406;2023-08-06T00:00:42;3.37;;;3.10;;
13343;SDS011;6741;48.964;9.406;2023-08-06T00:03:09;4.20;;;3.47;;
13343;SDS011;6741;48.964;9.406;2023-08-06T00:05:36;3.60;;;3.30;;
13343;SDS011;6741;48.964;9.406;2023-08-06T00:08:02;4.60;;;3.50;;
13343;SDS011;6741;48.964;9.406;2023-08-06T00:10:31;3.50;;;3.20;;
13343;SDS011;6741;48.964;9.406;2023-08-06T00:12:58;3.37;;;3.07;;
13343;SDS011;6741;48.964;9.406;2023-08-06T00:15:24;3.53;;;3.23;;
13343;SDS011;6741;48.964;9.406;2023-08-06T00:17:51;3.27;;;2.97;;
13343;SDS011;6741;48.964;9.406;2023-08-06T00:20:18;4.33;;;3.60;;
13343;SDS011;6741;48.964;9.406;2023-08-06T00:22:45;3.90;;;3.60;;
13343;SDS011;6741;48.964;9.406;2023-08-06T00:25:12;4.03;;;3.50;;
13343;SDS011;6741;48.964;9.406;2023-08-06T00:27:41;3.93;;;3.63;;
13343;SDS011;6741;48.964;9.406;2023-08-06T00:30:08;4.07;;;3.77;;
13343;SDS011;6741;48.964;9.406;2023-08-06T00:32:35;4.07;;;3.67;;
13343;SDS011;6741;48.964;9.406;2023-08-06T00:35:02;6.13;;;4.33;;
13343;SDS011;6741;48.964;9.406;2023-08-06T00:37:29;4.43;;;4.07;;
13343;SDS011;6741;48.964;9.406;2023-08-06T00:39:56;7.68;;;4.38;;
13343;SDS011;6741;48.964;9.406;2023-08-06T00:42:23;4.20;;;3.80;;
13343;SDS011;6741;48.964;9.406;2023-08-06T00:44:51;4.60;;;4.20;;
13343;SDS011;6741;48.964;9.406;2023-08-06T00:47:18;5.20;;;3.67;;
13343;SDS011;6741;48.964;9.406;2023-08-06T00:49:45;4.67;;;4.27;;
13343;SDS011;6741;48.964;9.406;2023-08-06T00:52:12;4.20;;;3.80;;
13343;SDS011;6741;48.964;9.406;2023-08-06T00:54:40;4.83;;;4.43;;
13343;SDS011;6741;48.964;9.406;2023-08-06T00:57:07;5.13;;;4.37;;
13343;SDS011;6741;48.964;9.406;2023-08-06T00:59:36;4.80;;;4.40;;
13343;SDS011;6741;48.964;9.406;2023-08-06T01:02:05;4.97;;;4.47;;
13343;SDS011;6741;48.964;9.406;2023-08-06T01:04:32;5.80;;;4.70;;
13343;SDS011;6741;48.964;9.406;2023-08-06T01:07:02;5.37;;;4.90;;
13343;SDS011;6741;48.964;9.406;2023-08-06T01:09:40;6.97;;;4.90;;
13343;SDS011;6741;48.964;9.406;2023-08-06T01:12:15;5.93;;;4.53;;
13343;SDS011;6741;48.964;9.406;2023-08-06T01:14:52;5.40;;;4.50;;
13343;SDS011;6741;48.964;9.406;2023-08-06T01:17:28;5.03;;;4.60;;
13343;SDS011;6741;48.964;9.406;2023-08-06T01:19:56;4.90;;;4.40;;
13343;SDS011;6741;48.964;9.406;2023-08-06T01:22:24;4.70;;;4.30;;
13343;SDS011;6741;48.964;9.406;2023-08-06T01:24:51;6.50;;;4.53;;
13343;SDS011;6741;48.964;9.406;2023-08-06T01:27:21;5.17;;;4.37;;
13343;SDS011;6741;48.964;9.406;2023-08-06T01:29:56;5.07;;;4.67;;
13343;SDS011;6741;48.964;9.406;2023-08-06T01:32:26;5.17;;;4.67;;
13343;SDS011;6741;48.964;9.406;2023-08-06T01:34:56;5.13;;;4.73;;
13343;SDS011;6741;48.964;9.406;2023-08-06T01:37:27;4.10;;;3.80;;
13343;SDS011;6741;48.964;9.406;2023-08-06T01:39:54;5.27;;;4.27;;
13343;SDS011;6741;48.964;9.406;2023-08-06T01:42:21;5.20;;;4.80;;
13343;SDS011;6741;48.964;9.406;2023-08-06T01:44:48;4.67;;;4.23;;
13343;SDS011;6741;48.964;9.406;2023-08-06T01:47:15;4.60;;;4.20;;
13343;SDS011;6741;48.964;9.406;2023-08-06T01:49:42;4.57;;;4.17;;
13343;SDS011;6741;48.964;9.406;2023-08-06T01:52:09;4.77;;;4.30;;
13343;SDS011;6741;48.964;9.406;2023-08-06T01:54:37;4.70;;;4.30;;
13343;SDS011;6741;48.964;9.406;2023-08-06T01:57:04;4.87;;;4.47;;
13343;SDS011;6741;48.964;9.406;2023-08-06T01:59:31;4.50;;;4.00;;
13343;SDS011;6741;48.964;9.406;2023-08-06T02:01:58;4.67;;;4.27;;
13343;SDS011;6741;48.964;9.406;2023-08-06T02:04:25;4.70;;;4.30;;
13343;SDS011;6741;48.964;9.406;2023-08-06T02:06:52;4.93;;;4.53;;
13343;SDS011;6741;48.964;9.406;2023-08-06T02:09:19;5.57;;;4.77;;
13343;SDS011;6741;48.964;9.406;2023-08-06T02:11:47;5.53;;;4.93;;
13343;SDS011;6741;48.964;9.406;2023-08-06T02:14:14;5.83;;;4.87;;
13343;SDS011;6741;48.964;9.406;2023-08-06T02:16:41;5.93;;;5.40;;
13343;SDS011;6741;48.964;9.406;2023-08-06T02:19:07;8.23;;;5.50;;
13343;SDS011;6741;48.964;9.406;2023-08-06T02:21:34;7.93;;;5.67;;
13343;SDS011;6741;48.964;9.406;2023-08-06T02:24:01;5.53;;;5.03;;
13343;SDS011;6741;48.964;9.406;2023-08-06T02:26:28;7.70;;;5.30;;
13343;SDS011;6741;48.964;9.406;2023-08-06T02:28:56;6.23;;;5.50;;
13343;SDS011;6741;48.964;9.406;2023-08-06T02:31:23;6.23;;;5.63;;
13343;SDS011;6741;48.964;9.406;2023-08-06T02:33:50;6.47;;;5.73;;
13343;SDS011;6741;48.964;9.406;2023-08-06T02:36:18;7.97;;;6.50;;
13343;SDS011;6741;48.964;9.406;2023-08-06T02:38:45;6.33;;;5.83;;
13343;SDS011;6741;48.964;9.406;2023-08-06T02:41:12;6.63;;;5.57;;
13343;SDS011;6741;48.964;9.406;2023-08-06T02:43:39;6.73;;;6.07;;
13343;SDS011;6741;48.964;9.406;2023-08-06T02:46:07;6.67;;;6.00;;
13343;SDS011;6741;48.964;9.406;2023-08-06T02:48:34;6.90;;;6.30;;
13343;SDS011;6741;48.964;9.406;2023-08-06T02:51:01;7.40;;;5.97;;
13343;SDS011;6741;48.964;9.406;2023-08-06T02:53:28;6.23;;;5.70;;
13343;SDS011;6741;48.964;9.406;2023-08-06T02:55:56;7.47;;;6.50;;
13343;SDS011;6741;48.964;9.406;2023-08-06T02:58:23;6.93;;;6.23;;
13343;SDS011;6741;48.964;9.406;2023-08-06T03:01:00;7.13;;;6.27;;
13343;SDS011;6741;48.964;9.406;2023-08-06T03:03:29;6.80;;;6.07;;
13343;SDS011;6741;48.964;9.406;2023-08-06T03:05:56;6.20;;;5.33;;
13343;SDS011;6741;48.964;9.406;2023-08-06T03:08:23;6.03;;;5.53;;
13343;SDS011;6741;48.964;9.406;2023-08-06T03:10:51;6.53;;;5.93;;
13343;SDS011;6741;48.964;9.406;2023-08-06T03:13:18;6.63;;;5.43;;
13343;SDS011;6741;48.964;9.406;2023-08-06T03:15:51;7.47;;;5.63;;
13343;SDS011;6741;48.964;9.406;2023-08-06T03:18:19;6.03;;;5.53;;
13343;SDS011;6741;48.964;9.406;2023-08-06T03:20:47;5.90;;;5.27;;
13343;SDS011;6741;48.964;9.406;2023-08-06T03:23:14;6.33;;;5.83;;
13343;SDS011;6741;48.964;9.406;2023-08-06T03:25:41;8.83;;;7.83;;
13343;SDS011;6741;48.964;9.406;2023-08-06T03:28:07;8.90;;;7.57;;
13343;SDS011;6741;48.964;9.406;2023-08-06T03:30:34;5.67;;;5.17;;
13343;SDS011;6741;48.964;9.406;2023-08-06T03:33:01;6.20;;;5.57;;
13343;SDS011;6741;48.964;9.406;2023-08-06T03:35:28;9.00;;;6.20;;
13343;SDS011;6741;48.964;9.406;2023-08-06T03:37:56;5.50;;;5.10;;
13343;SDS011;6741;48.964;9.406;2023-08-06T03:40:23;6.13;;;5.57;;
13343;SDS011;6741;48.964;9.406;2023-08-06T03:42:50;6.03;;;5.50;;
13343;SDS011;6741;48.964;9.406;2023-08-06T03:45:17;6.40;;;5.80;;
13343;SDS011;6741;48.964;9.406;2023-08-06T03:47:44;5.60;;;5.10;;
13343;SDS011;6741;48.964;9.406;2023-08-06T03:50:11;5.93;;;5.33;;
13343;SDS011;6741;48.964;9.406;2023-08-06T03:52:37;5.97;;;5.30;;
13343;SDS011;6741;48.964;9.406;2023-08-06T03:55:06;5.83;;;5.33;;
13343;SDS011;6741;48.964;9.406;2023-08-06T03:57:33;5.77;;;5.17;;
13343;SDS011;6741;48.964;9.406;2023-08-06T04:00:00;6.03;;;5.43;;
13343;SDS011;6741;48.964;9.406;2023-08-06T04:02:27;7.50;;;6.07;;
13343;SDS011;6741;48.964;9.406;2023-08-06T04:04:54;5.07;;;4.40;;
13343;SDS011;6741;48.964;9.406;2023-08-06T04:07:21;5.10;;;4.60;;
13343;SDS011;6741;48.964;9.406;2023-08-06T04:09:51;5.33;;;4.23;;
13343;SDS011;6741;48.964;9.406;2023-08-06T04:12:21;5.00;;;4.50;;
13343;SDS011;6741;48.964;9.406;2023-08-06T04:14:48;6.57;;;3.93;;
13343;SDS011;6741;48.964;9.406;2023-08-06T04:17:16;8.03;;;3.63;;
13343;SDS011;6741;48.964;9.406;2023-08-06T04:19:45;7.03;;;4.43;;
13343;SDS011;6741;48.964;9.406;2023-08-06T04:22:12;5.00;;;3.33;;
13343;SDS011;6741;48.964;9.406;2023-08-06T04:24:39;5.10;;;3.50;;
13343;SDS011;6741;48.964;9.406;2023-08-06T04:27:06;5.13;;;3.73;;
13343;SDS011;6741;48.964;9.406;2023-08-06T04:29:35;3.33;;;3.10;;
13343;SDS011;6741;48.964;9.406;2023-08-06T04:32:03;3.67;;;3.07;;
13343;SDS011;6741;48.964;9.406;2023-08-06T04:34:31;6.90;;;3.30;;
13343;SDS011;6741;48.964;9.406;2023-08-06T04:36:58;7.57;;;3.20;;
13343;SDS011;6741;48.964;9.406;2023-08-06T04:39:25;3.50;;;3.20;;
13343;SDS011;6741;48.964;9.406;2023-08-06T04:41:52;5.13;;;3.30;;
13343;SDS011;6741;48.964;9.406;2023-08-06T04:44:20;3.03;;;2.70;;
13343;SDS011;6741;48.964;9.406;2023-08-06T04:46:48;4.37;;;3.00;;
13343;SDS011;6741;48.964;9.406;2023-08-06T04:49:15;5.23;;;2.73;;
13343;SDS011;6741;48.964;9.406;2023-08-06T04:51:42;4.60;;;3.10;;
13343;SDS011;6741;48.964;9.406;2023-08-06T04:54:09;4.60;;;3.20;;
13343;SDS011;6741;48.964;9.406;2023-08-06T04:56:36;4.10;;;3.10;;
13343;SDS011;6741;48.964;9.406;2023-08-06T04:59:03;4.03;;;3.20;;
13343;SDS011;6741;48.964;9.406;2023-08-06T05:01:30;3.13;;;2.83;;
13343;SDS011;6741;48.964;9.406;2023-08-06T05:03:59;3.80;;;2.83;;
13343;SDS011;6741;48.964;9.406;2023-08-06T05:06:26;4.57;;;3.37;;
13343;SDS011;6741;48.964;9.406;2023-08-06T05:08:53;3.53;;;3.20;;
13343;SDS011;6741;48.964;9.406;2023-08-06T05:11:20;4.77;;;3.50;;
13343;SDS011;6741;48.964;9.406;2023-08-06T05:13:47;4.77;;;3.07;;
13343;SDS011;6741;48.964;9.406;2023-08-06T05:16:13;3.37;;;3.10;;
13343;SDS011;6741;48.964;9.406;2023-08-06T05:18:40;3.53;;;3.23;;
13343;SDS011;6741;48.964;9.406;2023-08-06T05:21:09;3.30;;;3.00;;
13343;SDS011;6741;48.964;9.406;2023-08-06T05:23:35;3.47;;;3.17;;
13343;SDS011;6741;48.964;9.406;2023-08-06T05:26:02;4.80;;;3.20;;
13343;SDS011;6741;48.964;9.406;2023-08-06T05:28:29;5.20;;;3.40;;
13343;SDS011;6741;48.964;9.406;2023-08-06T05:30:56;5.20;;;3.30;;
13343;SDS011;6741;48.964;9.406;2023-08-06T05:33:23;5.07;;;3.87;;
13343;SDS011;6741;48.964;9.406;2023-08-06T05:35:50;3.67;;;3.10;;
13343;SDS011;6741;48.964;9.406;2023-08-06T05:38:18;4.93;;;3.20;;
13343;SDS011;6741;48.964;9.406;2023-08-06T05:40:45;3.53;;;3.20;;
13343;SDS011;6741;48.964;9.406;2023-08-06T05:43:12;3.40;;;3.00;;
13343;SDS011;6741;48.964;9.406;2023-08-06T05:45:39;5.10;;;3.10;;
13343;SDS011;6741;48.964;9.406;2023-08-06T05:48:10;5.07;;;3.27;;
13343;SDS011;6741;48.964;9.406;2023-08-06T05:50:36;4.93;;;3.30;;
13343;SDS011;6741;48.964;9.406;2023-08-06T05:53:03;3.90;;;2.80;;
13343;SDS011;6741;48.964;9.406;2023-08-06T05:55:31;5.20;;;2.83;;
13343;SDS011;6741;48.964;9.406;2023-08-06T05:57:58;4.90;;;3.33;;
13343;SDS011;6741;48.964;9.406;2023-08-06T06:00:25;3.70;;;3.30;;
13343;SDS011;6741;48.964;9.406;2023-08-06T06:02:52;4.77;;;3.20;;
13343;SDS011;6741;48.964;9.406;2023-08-06T06:05:19;4.53;;;3.20;;
13343;SDS011;6741;48.964;9.406;2023-08-06T06:07:46;3.63;;;2.97;;
13343;SDS011;6741;48.964;9.406;2023-08-06T06:10:13;3.63;;;3.33;;
13343;SDS011;6741;48.964;9.406;2023-08-06T06:12:41;3.53;;;3.23;;
13343;SDS011;6741;48.964;9.406;2023-08-06T06:15:08;3.30;;;3.00;;
13343;SDS011;6741;48.964;9.406;2023-08-06T06:17:35;4.27;;;3.30;;
13343;SDS011;6741;48.964;9.406;2023-08-06T06:20:03;3.37;;;3.07;;
13343;SDS011;6741;48.964;9.406;2023-08-06T06:22:30;3.80;;;3.40;;
13343;SDS011;6741;48.964;9.406;2023-08-06T06:24:57;4.00;;;3.20;;
13343;SDS011;6741;48.964;9.406;2023-08-06T06:27:24;3.73;;;3.30;;
13343;SDS011;6741;48.964;9.406;2023-08-06T06:29:52;5.93;;;3.33;;
13343;SDS011;6741;48.964;9.406;2023-08-06T06:32:20;4.60;;;3.53;;
13343;SDS011;6741;48.964;9.406;2023-08-06T06:34:48;3.40;;;3.07;;
13343;SDS011;6741;48.964;9.406;2023-08-06T06:37:15;4.43;;;3.33;;
13343;SDS011;6741;48.964;9.406;2023-08-06T06:39:41;5.07;;;3.00;;
13343;SDS011;6741;48.964;9.406;2023-08-06T06:42:09;4.60;;;3.00;;
13343;SDS011;6741;48.964;9.406;2023-08-06T06:44:36;4.60;;;3.23;;
13343;SDS011;6741;48.964;9.406;2023-08-06T06:47:04;2.80;;;2.50;;
13343;SDS011;6741;48.964;9.406;2023-08-06T06:49:31;2.97;;;2.40;;
13343;SDS011;6741;48.964;9.406;2023-08-06T06:51:58;4.07;;;2.87;;
13343;SDS011;6741;48.964;9.406;2023-08-06T06:54:25;2.53;;;2.33;;
13343;SDS011;6741;48.964;9.406;2023-08-06T06:56:52;2.60;;;2.40;;
13343;SDS011;6741;48.964;9.406;2023-08-06T06:59:18;4.23;;;2.20;;
13343;SDS011;6741;48.964;9.406;2023-08-06T07:01:45;3.10;;;2.20;;
13343;SDS011;6741;48.964;9.406;2023-08-06T07:04:14;2.23;;;1.50;;
13343;SDS011;6741;48.964;9.406;2023-08-06T07:06:41;1.30;;;1.20;;
13343;SDS011;6741;48.964;9.406;2023-08-06T07:09:07;1.87;;;1.47;;
13343;SDS011;6741;48.964;9.406;2023-08-06T07:11:35;0.80;;;0.80;;
13343;SDS011;6741;48.964;9.406;2023-08-06T07:14:02;1.97;;;1.20;;
13343;SDS011;6741;48.964;9.406;2023-08-06T07:16:28;1.77;;;0.87;;
13343;SDS011;6741;48.964;9.406;2023-08-06T07:18:55;1.80;;;1.23;;
13343;SDS011;6741;48.964;9.406;2023-08-06T07:21:23;1.60;;;1.17;;
13343;SDS011;6741;48.964;9.406;2023-08-06T07:23:50;1.50;;;0.87;;
13343;SDS011;6741;48.964;9.406;2023-08-06T07:26:17;7.20;;;1.03;;
13343;SDS011;6741;48.964;9.406;2023-08-06T07:28:44;1.53;;;0.90;;
13343;SDS011;6741;48.964;9.406;2023-08-06T07:31:11;0.87;;;0.60;;
13343;SDS011;6741;48.964;9.406;2023-08-06T07:33:38;3.03;;;1.00;;
13343;SDS011;6741;48.964;9.406;2023-08-06T07:36:08;0.57;;;0.53;;
13343;SDS011;6741;48.964;9.406;2023-08-06T07:38:37;1.03;;;0.70;;
13343;SDS011;6741;48.964;9.406;2023-08-06T07:41:04;0.70;;;0.70;;
13343;SDS011;6741;48.964;9.406;2023-08-06T07:43:31;0.73;;;0.60;;
13343;SDS011;6741;48.964;9.406;2023-08-06T07:45:58;0.97;;;0.63;;
13343;SDS011;6741;48.964;9.406;2023-08-06T07:48:26;0.87;;;0.87;;
13343;SDS011;6741;48.964;9.406;2023-08-06T07:50:53;3.60;;;0.73;;
13343;SDS011;6741;48.964;9.406;2023-08-06T07:53:20;0.53;;;0.50;;
13343;SDS011;6741;48.964;9.406;2023-08-06T07:55:50;2.70;;;0.70;;
13343;SDS011;6741;48.964;9.406;2023-08-06T07:58:17;0.90;;;0.43;;
13343;SDS011;6741;48.964;9.406;2023-08-06T08:00:44;0.43;;;0.33;;
13343;SDS011;6741;48.964;9.406;2023-08-06T08:03:11;1.37;;;0.70;;
13343;SDS011;6741;48.964;9.406;2023-08-06T08:05:39;1.10;;;0.90;;
13343;SDS011;6741;48.964;9.406;2023-08-06T08:08:06;1.40;;;0.40;;
13343;SDS011;6741;48.964;9.406;2023-08-06T08:10:32;0.77;;;0.50;;
13343;SDS011;6741;48.964;9.406;2023-08-06T08:13:01;0.60;;;0.60;;
13343;SDS011;6741;48.964;9.406;2023-08-06T08:15:29;1.03;;;0.70;;
13343;SDS011;6741;48.964;9.406;2023-08-06T08:17:57;0.90;;;0.70;;
13343;SDS011;6741;48.964;9.406;2023-08-06T08:20:24;0.40;;;0.40;;
13343;SDS011;6741;48.964;9.406;2023-08-06T08:22:52;1.03;;;0.60;;
13343;SDS011;6741;48.964;9.406;2023-08-06T08:25:19;0.90;;;0.60;;
13343;SDS011;6741;48.964;9.406;2023-08-06T08:27:46;2.97;;;1.47;;
13343;SDS011;6741;48.964;9.406;2023-08-06T08:30:14;1.13;;;0.73;;
13343;SDS011;6741;48.964;9.406;2023-08-06T08:32:41;0.60;;;0.60;;
13343;SDS011;6741;48.964;9.406;2023-08-06T08:35:08;0.97;;;0.40;;
13343;SDS011;6741;48.964;9.406;2023-08-06T08:37:37;0.40;;;0.40;;
13343;SDS011;6741;48.964;9.406;2023-08-06T08:40:05;0.97;;;0.60;;
13343;SDS011;6741;48.964;9.406;2023-08-06T08:42:32;0.50;;;0.50;;
13343;SDS011;6741;48.964;9.406;2023-08-06T08:44:59;0.50;;;0.40;;
13343;SDS011;6741;48.964;9.406;2023-08-06T08:47:28;0.70;;;0.60;;
13343;SDS011;6741;48.964;9.406;2023-08-06T08:49:55;0.50;;;0.35;;
13343;SDS011;6741;48.964;9.406;2023-08-06T08:52:23;1.85;;;0.47;;
13343;SDS011;6741;48.964;9.406;2023-08-06T08:54:51;0.30;;;0.30;;
13343;SDS011;6741;48.964;9.406;2023-08-06T08:57:19;0.60;;;0.40;;
13343;SDS011;6741;48.964;9.406;2023-08-06T08:59:47;0.43;;;0.40;;
13343;SDS011;6741;48.964;9.406;2023-08-06T09:02:14;1.75;;;0.75;;
13343;SDS011;6741;48.964;9.406;2023-08-06T09:04:43;0.50;;;0.45;;
13343;SDS011;6741;48.964;9.406;2023-08-06T09:07:13;0.53;;;0.27;;
13343;SDS011;6741;48.964;9.406;2023-08-06T09:09:43;0.30;;;0.20;;
13343;SDS011;6741;48.964;9.406;2023-08-06T09:12:15;1.48;;;0.70;;
13343;SDS011;6741;48.964;9.406;2023-08-06T09:14:43;0.30;;;0.30;;
13343;SDS011;6741;48.964;9.406;2023-08-06T09:17:09;0.30;;;0.30;;
13343;SDS011;6741;48.964;9.406;2023-08-06T09:19:36;0.70;;;0.40;;
13343;SDS011;6741;48.964;9.406;2023-08-06T09:22:04;0.20;;;0.20;;
13343;SDS011;6741;48.964;9.406;2023-08-06T09:24:38;0.67;;;0.40;;
13343;SDS011;6741;48.964;9.406;2023-08-06T09:27:08;0.30;;;0.20;;
13343;SDS011;6741;48.964;9.406;2023-08-06T09:29:39;0.20;;;0.20;;
13343;SDS011;6741;48.964;9.406;2023-08-06T09:32:07;0.50;;;0.40;;
13343;SDS011;6741;48.964;9.406;2023-08-06T09:34:34;0.60;;;0.40;;
13343;SDS011;6741;48.964;9.406;2023-08-06T09:37:01;0.20;;;0.20;;
13343;SDS011;6741;48.964;9.406;2023-08-06T09:39:31;0.40;;;0.40;;
13343;SDS011;6741;48.964;9.406;2023-08-06T09:41:58;0.30;;;0.30;;
13343;SDS011;6741;48.964;9.406;2023-08-06T09:44:26;0.40;;;0.40;;
13343;SDS011;6741;48.964;9.406;2023-08-06T09:46:55;0.67;;;0.40;;
13343;SDS011;6741;48.964;9.406;2023-08-06T09:49:25;1.10;;;0.30;;
13343;SDS011;6741;48.964;9.406;2023-08-06T09:51:53;0.20;;;0.20;;
13343;SDS011;6741;48.964;9.406;2023-08-06T09:54:23;0.17;;;0.17;;
13343;SDS011;6741;48.964;9.406;2023-08-06T09:56:51;0.20;;;0.20;;
13343;SDS011;6741;48.964;9.406;2023-08-06T09:59:18;0.27;;;0.27;;
13343;SDS011;6741;48.964;9.406;2023-08-06T10:01:45;0.67;;;0.40;;
13343;SDS011;6741;48.964;9.406;2023-08-06T10:04:13;0.20;;;0.20;;
13343;SDS011;6741;48.964;9.406;2023-08-06T10:06:41;0.60;;;0.40;;
13343;SDS011;6741;48.964;9.406;2023-08-06T10:09:09;0.20;;;0.20;;
13343;SDS011;6741;48.964;9.406;2023-08-06T10:11:37;1.17;;;0.10;;
13343;SDS011;6741;48.964;9.406;2023-08-06T10:14:06;0.40;;;0.10;;
13343;SDS011;6741;48.964;9.406;2023-08-06T10:16:39;0.20;;;0.20;;
13343;SDS011;6741;48.964;9.406;2023-08-06T10:19:07;0.83;;;0.20;;
13343;SDS011;6741;48.964;9.406;2023-08-06T10:21:37;0.33;;;0.27;;
13343;SDS011;6741;48.964;9.406;2023-08-06T10:24:06;0.47;;;0.20;;
13343;SDS011;6741;48.964;9.406;2023-08-06T10:26:37;0.10;;;0.10;;
13343;SDS011;6741;48.964;9.406;2023-08-06T10:32:01;0.20;;;0.20;;
13343;SDS011;6741;48.964;9.406;2023-08-06T10:37:21;0.33;;;0.20;;
13343;SDS011;6741;48.964;9.406;2023-08-06T10:39:49;0.93;;;0.20;;
13343;SDS011;6741;48.964;9.406;2023-08-06T10:42:21;0.33;;;0.27;;
13343;SDS011;6741;48.964;9.406;2023-08-06T10:47:38;0.30;;;0.30;;
13343;SDS011;6741;48.964;9.406;2023-08-06T10:50:06;0.17;;;0.13;;
13343;SDS011;6741;48.964;9.406;2023-08-06T10:52:33;0.30;;;0.30;;
13343;SDS011;6741;48.964;9.406;2023-08-06T10:55:00;0.20;;;0.20;;
13343;SDS011;6741;48.964;9.406;2023-08-06T10:57:29;0.20;;;0.20;;
13343;SDS011;6741;48.964;9.406;2023-08-06T10:59:56;0.50;;;0.30;;
13343;SDS011;6741;48.964;9.406;2023-08-06T11:02:22;0.40;;;0.20;;
13343;SDS011;6741;48.964;9.406;2023-08-06T11:04:49;0.20;;;0.20;;
13343;SDS011;6741;48.964;9.406;2023-08-06T11:07:17;0.77;;;0.40;;
13343;SDS011;6741;48.964;9.406;2023-08-06T11:09:44;0.50;;;0.47;;
13343;SDS011;6741;48.964;9.406;2023-08-06T11:12:10;0.50;;;0.50;;
13343;SDS011;6741;48.964;9.406;2023-08-06T11:14:39;0.50;;;0.50;;
13343;SDS011;6741;48.964;9.406;2023-08-06T11:17:06;0.37;;;0.37;;
13343;SDS011;6741;48.964;9.406;2023-08-06T11:19:33;0.43;;;0.43;;
13343;SDS011;6741;48.964;9.406;2023-08-06T11:22:00;0.23;;;0.23;;
13343;SDS011;6741;48.964;9.406;2023-08-06T11:24:27;1.50;;;0.40;;
13343;SDS011;6741;48.964;9.406;2023-08-06T11:26:54;0.50;;;0.50;;
13343;SDS011;6741;48.964;9.406;2023-08-06T11:29:21;1.83;;;0.97;;
13343;SDS011;6741;48.964;9.406;2023-08-06T11:31:50;0.70;;;0.70;;
13343;SDS011;6741;48.964;9.406;2023-08-06T11:34:17;0.73;;;0.73;;
13343;SDS011;6741;48.964;9.406;2023-08-06T11:36:44;1.23;;;0.80;;
13343;SDS011;6741;48.964;9.406;2023-08-06T11:39:11;1.13;;;0.87;;
13343;SDS011;6741;48.964;9.406;2023-08-06T11:41:38;0.70;;;0.70;;
13343;SDS011;6741;48.964;9.406;2023-08-06T11:44:06;1.27;;;0.97;;
13343;SDS011;6741;48.964;9.406;2023-08-06T11:49:39;0.80;;;0.80;;
13343;SDS011;6741;48.964;9.406;2023-08-06T11:52:10;2.47;;;0.80;;
13343;SDS011;6741;48.964;9.406;2023-08-06T11:54:39;1.00;;;1.00;;
13343;SDS011;6741;48.964;9.406;2023-08-06T11:57:06;1.40;;;1.30;;
13343;SDS011;6741;48.964;9.406;2023-08-06T11:59:33;1.90;;;1.50;;
13343;SDS011;6741;48.964;9.406;2023-08-06T12:02:01;1.30;;;1.20;;
13343;SDS011;6741;48.964;9.406;2023-08-06T12:04:30;2.23;;;1.30;;
13343;SDS011;6741;48.964;9.406;2023-08-06T12:07:04;1.50;;;1.40;;
13343;SDS011;6741;48.964;9.406;2023-08-06T12:09:32;1.97;;;1.60;;
13343;SDS011;6741;48.964;9.406;2023-08-06T12:12:01;4.03;;;1.77;;
13343;SDS011;6741;48.964;9.406;2023-08-06T12:14:28;1.57;;;1.47;;
13343;SDS011;6741;48.964;9.406;2023-08-06T12:16:55;1.53;;;1.43;;
13343;SDS011;6741;48.964;9.406;2023-08-06T12:19:23;2.00;;;1.90;;
13343;SDS011;6741;48.964;9.406;2023-08-06T12:21:51;3.50;;;2.00;;
13343;SDS011;6741;48.964;9.406;2023-08-06T12:24:18;2.80;;;2.30;;
13343;SDS011;6741;48.964;9.406;2023-08-06T12:26:44;2.40;;;2.17;;
13343;SDS011;6741;48.964;9.406;2023-08-06T12:29:11;3.20;;;2.57;;
13343;SDS011;6741;48.964;9.406;2023-08-06T12:31:38;4.57;;;2.73;;
13343;SDS011;6741;48.964;9.406;2023-08-06T12:34:05;2.37;;;2.17;;
13343;SDS011;6741;48.964;9.406;2023-08-06T12:36:33;2.87;;;2.47;;
13343;SDS011;6741;48.964;9.406;2023-08-06T12:39:00;4.37;;;2.87;;
13343;SDS011;6741;48.964;9.406;2023-08-06T12:41:27;3.20;;;2.83;;
13343;SDS011;6741;48.964;9.406;2023-08-06T12:43:54;2.50;;;2.30;;
13343;SDS011;6741;48.964;9.406;2023-08-06T12:46:21;3.60;;;2.87;;
13343;SDS011;6741;48.964;9.406;2023-08-06T12:48:48;3.80;;;3.00;;
13343;SDS011;6741;48.964;9.406;2023-08-06T12:51:14;3.10;;;2.80;;
13343;SDS011;6741;48.964;9.406;2023-08-06T12:53:43;4.83;;;2.80;;
13343;SDS011;6741;48.964;9.406;2023-08-06T12:56:10;3.93;;;2.90;;
13343;SDS011;6741;48.964;9.406;2023-08-06T12:58:36;3.60;;;3.27;;
13343;SDS011;6741;48.964;9.406;2023-08-06T13:01:04;5.90;;;2.87;;
13343;SDS011;6741;48.964;9.406;2023-08-06T13:03:31;3.70;;;2.60;;
13343;SDS011;6741;48.964;9.406;2023-08-06T13:05:58;3.53;;;2.80;;
13343;SDS011;6741;48.964;9.406;2023-08-06T13:08:25;4.20;;;2.53;;
13343;SDS011;6741;48.964;9.406;2023-08-06T13:10:53;4.33;;;2.80;;
13343;SDS011;6741;48.964;9.406;2023-08-06T13:13:20;3.27;;;2.60;;
13343;SDS011;6741;48.964;9.406;2023-08-06T13:15:47;3.27;;;2.97;;
13343;SDS011;6741;48.964;9.406;2023-08-06T13:18:14;3.03;;;2.27;;
13343;SDS011;6741;48.964;9.406;2023-08-06T13:20:41;3.67;;;2.20;;
13343;SDS011;6741;48.964;9.406;2023-08-06T13:23:08;2.20;;;2.00;;
13343;SDS011;6741;48.964;9.406;2023-08-06T13:25:35;2.40;;;2.20;;
13343;SDS011;6741;48.964;9.406;2023-08-06T13:28:05;2.70;;;2.50;;
13343;SDS011;6741;48.964;9.406;2023-08-06T13:30:33;2.97;;;2.20;;
13343;SDS011;6741;48.964;9.406;2023-08-06T13:33:00;2.43;;;2.23;;
13343;SDS011;6741;48.964;9.406;2023-08-06T13:35:29;2.47;;;2.27;;
13343;SDS011;6741;48.964;9.406;2023-08-06T13:37:56;2.60;;;2.13;;
13343;SDS011;6741;48.964;9.406;2023-08-06T13:40:23;2.83;;;2.10;;
13343;SDS011;6741;48.964;9.406;2023-08-06T13:42:50;2.37;;;2.17;;
13343;SDS011;6741;48.964;9.406;2023-08-06T13:45:18;3.93;;;1.67;;
13343;SDS011;6741;48.964;9.406;2023-08-06T13:47:45;2.37;;;1.90;;
13343;SDS011;6741;48.964;9.406;2023-08-06T13:50:12;1.87;;;1.70;;
13343;SDS011;6741;48.964;9.406;2023-08-06T13:52:39;2.70;;;1.60;;
13343;SDS011;6741;48.964;9.406;2023-08-06T13:55:07;2.53;;;1.40;;
13343;SDS011;6741;48.964;9.406;2023-08-06T13:57:34;1.57;;;1.20;;
13343;SDS011;6741;48.964;9.406;2023-08-06T14:00:01;1.60;;;1.37;;
13343;SDS011;6741;48.964;9.406;2023-08-06T14:02:30;1.57;;;1.47;;
13343;SDS011;6741;48.964;9.406;2023-08-06T14:04:57;2.10;;;1.30;;
13343;SDS011;6741;48.964;9.406;2023-08-06T14:07:24;1.47;;;1.20;;
13343;SDS011;6741;48.964;9.406;2023-08-06T14:09:51;0.90;;;0.90;;
13343;SDS011;6741;48.964;9.406;2023-08-06T14:12:18;1.00;;;1.00;;
13343;SDS011;6741;48.964;9.406;2023-08-06T14:14:45;0.80;;;0.80;;
13343;SDS011;6741;48.964;9.406;2023-08-06T14:17:11;0.90;;;0.90;;
13343;SDS011;6741;48.964;9.406;2023-08-06T14:19:40;1.00;;;1.00;;
13343;SDS011;6741;48.964;9.406;2023-08-06T14:22:07;2.00;;;1.20;;
13343;SDS011;6741;48.964;9.406;2023-08-06T14:24:34;1.20;;;1.10;;
13343;SDS011;6741;48.964;9.406;2023-08-06T14:27:00;1.00;;;1.00;;
13343;SDS011;6741;48.964;9.406;2023-08-06T14:29:29;1.30;;;1.20;;
13343;SDS011;6741;48.964;9.406;2023-08-06T14:31:56;1.03;;;0.90;;
13343;SDS011;6741;48.964;9.406;2023-08-06T14:34:22;1.57;;;1.17;;
13343;SDS011;6741;48.964;9.406;2023-08-06T14:36:51;1.97;;;1.27;;
13343;SDS011;6741;48.964;9.406;2023-08-06T14:39:17;0.80;;;0.77;;
13343;SDS011;6741;48.964;9.406;2023-08-06T14:41:44;0.87;;;0.87;;
13343;SDS011;6741;48.964;9.406;2023-08-06T14:44:12;1.23;;;0.80;;
13343;SDS011;6741;48.964;9.406;2023-08-06T14:46:39;1.70;;;1.00;;
13343;SDS011;6741;48.964;9.406;2023-08-06T14:49:06;0.67;;;0.67;;
13343;SDS011;6741;48.964;9.406;2023-08-06T14:51:33;1.67;;;1.00;;
13343;SDS011;6741;48.964;9.406;2023-08-06T14:54:01;1.10;;;1.00;;
13343;SDS011;6741;48.964;9.406;2023-08-06T14:56:28;1.40;;;1.30;;
13343;SDS011;6741;48.964;9.406;2023-08-06T14:58:55;2.03;;;1.47;;
13343;SDS011;6741;48.964;9.406;2023-08-06T15:01:21;2.57;;;1.10;;
13343;SDS011;6741;48.964;9.406;2023-08-06T15:03:48;1.37;;;1.27;;
13343;SDS011;6741;48.964;9.406;2023-08-06T15:06:15;2.70;;;1.50;;
13343;SDS011;6741;48.964;9.406;2023-08-06T15:08:42;2.23;;;1.80;;
13343;SDS011;6741;48.964;9.406;2023-08-06T15:11:13;3.20;;;1.70;;
13343;SDS011;6741;48.964;9.406;2023-08-06T15:13:40;3.47;;;2.00;;